Todos
Bath Community Hospital Airport (Hot Springs, VA) 47VG Condiciones meteorológicas
There is no TAF data available at 47VG or any nearby airports.
There is no METAR data available at 47VG. Showing METAR data for KHSP (3 mi S).
Historial METAR HSP reciente (no hay datos para 47VG)
| Date | Time (EDT) | Flight Rules | Wind Dir. | Speed | Type | Height AGL (ft) | Visibility | Temp (°C) | Temp (°F) | Dew Point (°C) | Dew Point (°F) | Rel. Humid. | Pressure | Density Altitude | Remarks |
|---|---|---|---|---|---|---|---|---|---|---|---|---|---|---|---|
| 31-ago | 02:15AM | VFR | Calm | 10 miles | 19° | 66° | 16° | 60° | 82% | 30.28 in Hg | 4.625 ft | ||||
| 31-ago | 01:55AM | VFR | Calm | 10 miles | 21° | 69° | 17° | 62° | 80% | 30.28 in Hg | 4.865 ft | ||||
| 31-ago | 01:35AM | VFR | Calm | 10 miles | 20° | 68° | 17° | 62° | 81% | 30.29 in Hg | 4.735 ft | ||||
| 31-ago | 01:15AM | VFR | 290° | 3 kt | 10 miles | 20° | 68° | 18° | 64° | 86% | 30.29 in Hg | 4.735 ft | |||
| 31-ago | 12:55AM | VFR | 280° | 4 kt | 10 miles | 20° | 68° | 17° | 62° | 84% | 30.29 in Hg | 4.735 ft | |||
| 31-ago | 12:35AM | VFR | Calm | 10 miles | 20° | 68° | 17° | 62° | 83% | 30.29 in Hg | 4.735 ft | ||||
| 31-ago | 12:15AM | VFR | Calm | 10 miles | 20° | 68° | 18° | 64° | 91% | 30.30 in Hg | 4.725 ft | ||||
| 30-ago | 11:55PM | VFR | Calm | 10 miles | 21° | 69° | 18° | 64° | 83% | 30.30 in Hg | 4.845 ft | ||||
| 30-ago | 11:35PM | VFR | Calm | 10 miles | 20° | 68° | 18° | 64° | 90% | 30.30 in Hg | 4.725 ft | ||||
| 30-ago | 11:15PM | VFR | Calm | 10 miles | 20° | 68° | 18° | 64° | 88% | 30.30 in Hg | 4.725 ft | ||||
| 30-ago | 10:55PM | VFR | Calm | 10 miles | 21° | 69° | 18° | 64° | 86% | 30.30 in Hg | 4.845 ft | ||||
| 30-ago | 10:35PM | VFR | Calm | 10 miles | 20° | 68° | 17° | 62° | 87% | 30.30 in Hg | 4.725 ft | ||||
| 30-ago | 10:15PM | VFR | Calm | 10 miles | 21° | 69° | 18° | 64° | 80% | 30.31 in Hg | 4.835 ft | ||||
| 30-ago | 09:55PM | VFR | 290° | 3 kt | 10 miles | 21° | 69° | 17° | 62° | 80% | 30.31 in Hg | 4.835 ft | |||
| 30-ago | 09:35PM | VFR | Calm | 10 miles | 21° | 69° | 18° | 64° | 81% | 30.30 in Hg | 4.845 ft | ||||
| 30-ago | 09:15PM | VFR | 200° | 3 kt | 10 miles | 21° | 69° | 18° | 64° | 84% | 30.30 in Hg | 4.845 ft | |||
| 30-ago | 08:55PM | VFR | 220° | 4 kt | 10 miles | 21° | 69° | 18° | 64° | 85% | 30.30 in Hg | 4.845 ft | |||
| 30-ago | 08:15PM | VFR | 210° | 4 kt | 10 miles | 21° | 69° | 17° | 62° | 74% | 30.29 in Hg | 4.855 ft | |||
| 30-ago | 07:55PM | VFR | 210° | 4 kt | 10 miles | 22° | 71° | 17° | 62° | 74% | 30.28 in Hg | 4.985 ft | |||
| 30-ago | 07:35PM | VFR | 220° | 5 kt | 10 miles |
21° | 69° | 17° | 62° | 77% | 30.28 in Hg | 4.865 ft | |||
| 30-ago | 07:15PM | VFR | 220° | 5 kt | 7 miles | 22° | 71° | 17° | 62° | 77% | 30.27 in Hg | 4.995 ft | |||
| 30-ago | 06:55PM | VFR | 250° | 7 kt | 7 miles |
23° | 73° | 18° | 64° | 73% | 30.27 in Hg | 5.115 ft | |||
| 30-ago | 06:35PM | VFR | 260° | 6 kt | 10 miles | 23° | 73° | 17° | 62° | 68% | 30.27 in Hg | 5.115 ft | |||
| 30-ago | 06:15PM | VFR | 250° | 7 kt | 10 miles | 24° | 75° | 18° | 64° | 67% | 30.27 in Hg | 5.235 ft |
Entrar
| Tu navegador no está contemplado. eleva la categoría de tu navegador |
